^^
Saratoga-Weather Station Historical Data
Daily Summary for January 22, 2021 Units:  Metric    English   Both
Daily Weekly Monthly Yearly Custom
  High: Low: Average:
Temperature: 10.6 °C 1.9 °C 5.2 °C
Dew Point: 7.6 °C 1 °C 3.8 °C
Humidity: 95% 78% 91%
Wind Speed: 22.7km/h 0km/h 4.1km/h
Wind Gust: 32.2km/h - -
Wind- - SW
Pressure: 998.3 hPa 989.2 hPa -
Precipitation: 12.2 mm    
Historical Graphs
 
 
Tabular Data for January 22, 2021
Time Temperature Dew Point Pressure Wind Wind Speed Wind Gust Humidity Rainfall Rate (Hourly) solar
00:04 10.6 °C 6.9 °C 989.8 hPa ENE 6.4 km/h 9.7 km/h 78% 0.0 mm 0 W/m2
00:09 10.6 °C 6.9 °C 989.5 hPa NW 6.4 km/h 11.3 km/h 78% 0.0 mm 0 W/m2
00:14 10.6 °C 6.9 °C 989.5 hPa WNW 11.1 km/h 22.5 km/h 78% 0.0 mm 0 W/m2
00:19 10.5 °C 7 °C 989.5 hPa WNW 6.4 km/h 22.5 km/h 79% 0.0 mm 0 W/m2
00:24 10.5 °C 6.8 °C 989.5 hPa North 9.7 km/h 22.5 km/h 78% 0.0 mm 0 W/m2
00:29 10.5 °C 7 °C 989.5 hPa North 6.4 km/h 16.1 km/h 79% 0.0 mm 0 W/m2
00:34 10.4 °C 7.1 °C 989.8 hPa North 1.4 km/h 9.7 km/h 80% 0.0 mm 0 W/m2
00:39 10.2 °C 7.1 °C 989.5 hPa NNE 7.9 km/h 25.7 km/h 81% 0.0 mm 0 W/m2
00:44 10.1 °C 7 °C 989.5 hPa West 16.3 km/h 16.1 km/h 81% 0.0 mm 0 W/m2
00:49 10.1 °C 6.8 °C 989.5 hPa WNW 4.7 km/h 12.9 km/h 80% 0.0 mm 0 W/m2
00:54 10.2 °C 6.7 °C 989.5 hPa East 3.2 km/h 16.1 km/h 79% 0.0 mm 0 W/m2
00:59 10.3 °C 6.8 °C 989.2 hPa NE 16.3 km/h 17.7 km/h 79% 0.0 mm 0 W/m2
01:04 10.4 °C 6.7 °C 989.5 hPa NW 4.7 km/h 16.1 km/h 78% 0.0 mm 0 W/m2
01:09 10.4 °C 6.9 °C 989.5 hPa South 11.1 km/h 11.3 km/h 79% 0.0 mm 0 W/m2
01:14 10.3 °C 7 °C 989.5 hPa SSE 3.2 km/h 27.4 km/h 80% 0.2 mm 0 W/m2
01:19 10.1 °C 7.2 °C 989.5 hPa WNW 7.9 km/h 16.1 km/h 82% 0.2 mm 0 W/m2
01:24 9.8 °C 7.1 °C 989.5 hPa WNW 4.7 km/h 27.4 km/h 83% 0.2 mm 0 W/m2
01:29 9.7 °C 7.1 °C 989.5 hPa WSW 3.2 km/h 14.5 km/h 84% 0.2 mm 0 W/m2
01:34 9.6 °C 7.2 °C 989.5 hPa Calm   11.3 km/h 85% 0.2 mm 0 W/m2
01:39 9.4 °C 7.2 °C 989.2 hPa NE 7.9 km/h 16.1 km/h 86% 0.2 mm 0 W/m2
01:44 9.3 °C 7.2 °C 989.5 hPa WSW 11.1 km/h 17.7 km/h 87% 0.2 mm 0 W/m2
01:49 9.2 °C 7.3 °C 989.5 hPa West 4.7 km/h 19.3 km/h 88% 0.2 mm 0 W/m2
01:54 9.2 °C 7.3 °C 989.2 hPa NNW 6.4 km/h 24.1 km/h 88% 0.2 mm 0 W/m2
01:59 9.1 °C 7.4 °C 989.5 hPa SSW 6.4 km/h 17.7 km/h 89% 0.2 mm 0 W/m2
02:04 9.1 °C 7.4 °C 989.5 hPa NNE 4.7 km/h 12.9 km/h 89% 0.2 mm 0 W/m2
02:09 9.1 °C 7.4 °C 989.5 hPa NE 9.7 km/h 12.9 km/h 89% 0.2 mm 0 W/m2
02:14 9.1 °C 7.4 °C 989.5 hPa NW 13 km/h 16.1 km/h 89% 0.0 mm 0 W/m2
02:19 9.1 °C 7.4 °C 989.5 hPa SE 4.7 km/h 11.3 km/h 89% 0.0 mm 0 W/m2
02:24 9.1 °C 7.4 °C 989.5 hPa WNW 6.4 km/h 17.7 km/h 89% 0.0 mm 0 W/m2
02:29 9 °C 7.4 °C 989.5 hPa NW 9.7 km/h 19.3 km/h 90% 0.0 mm 0 W/m2
02:34 8.9 °C 7.3 °C 989.5 hPa NNW 13 km/h 12.9 km/h 90% 0.2 mm 0 W/m2
02:39 8.9 °C 7.5 °C 989.5 hPa East 6.4 km/h 12.9 km/h 91% 0.2 mm 0 W/m2
02:44 8.8 °C 7.4 °C 989.5 hPa NW 6.4 km/h 14.5 km/h 91% 0.2 mm 0 W/m2
02:49 8.8 °C 7.4 °C 989.5 hPa NNW 4.7 km/h 8 km/h 91% 0.2 mm 0 W/m2
02:54 8.8 °C 7.6 °C 989.8 hPa NW 3.2 km/h 9.7 km/h 92% 0.2 mm 0 W/m2
02:59 8.7 °C 7.5 °C 989.8 hPa WNW 6.4 km/h 11.3 km/h 92% 0.2 mm 0 W/m2
03:04 8.7 °C 7.5 °C 989.8 hPa ENE 16.3 km/h 16.1 km/h 92% 0.2 mm 0 W/m2
03:09 8.8 °C 7.6 °C 989.8 hPa WNW 6.4 km/h 19.3 km/h 92% 0.5 mm 0 W/m2
03:14 8.8 °C 7.6 °C 989.5 hPa ENE 6.4 km/h 14.5 km/h 92% 0.5 mm 0 W/m2
03:19 8.8 °C 7.4 °C 989.8 hPa WNW 13 km/h 16.1 km/h 91% 0.5 mm 0 W/m2
03:24 8.9 °C 7.5 °C 989.8 hPa NW 14.3 km/h 20.9 km/h 91% 0.5 mm 0 W/m2
03:29 9 °C 7.4 °C 989.8 hPa West 9.7 km/h 32.2 km/h 90% 0.5 mm 0 W/m2
03:34 9.1 °C 7.5 °C 989.8 hPa NW 13 km/h 17.7 km/h 90% 0.2 mm 0 W/m2
03:39 9.1 °C 7.4 °C 989.8 hPa ENE 6.4 km/h 32.2 km/h 89% 0.2 mm 0 W/m2
03:44 9.1 °C 7.4 °C 989.5 hPa WNW 7.9 km/h 12.9 km/h 89% 0.2 mm 0 W/m2
03:49 9.2 °C 7.3 °C 989.5 hPa WNW 7.9 km/h 14.5 km/h 88% 0.2 mm 0 W/m2
03:54 9.2 °C 7.3 °C 989.8 hPa NNW 9.7 km/h 16.1 km/h 88% 0.2 mm 0 W/m2
03:59 9.3 °C 7.2 °C 989.8 hPa WSW 4.7 km/h 17.7 km/h 87% 0.2 mm 0 W/m2
04:04 9.3 °C 7.2 °C 989.8 hPa WNW 4.7 km/h 9.7 km/h 87% 0.2 mm 0 W/m2
04:09 9.3 °C 7.2 °C 989.8 hPa WNW 7.9 km/h 17.7 km/h 87% 0.0 mm 0 W/m2
04:14 9.3 °C 7.2 °C 989.8 hPa SW 9.7 km/h 25.7 km/h 87% 0.0 mm 0 W/m2
04:19 9.3 °C 7.2 °C 989.8 hPa NW 7.9 km/h 20.9 km/h 87% 0.0 mm 0 W/m2
04:24 9.3 °C 7.2 °C 989.8 hPa NW 4.7 km/h 25.7 km/h 87% 0.0 mm 0 W/m2
04:29 9.2 °C 7.3 °C 989.8 hPa WNW 4.7 km/h 19.3 km/h 88% 0.0 mm 0 W/m2
04:34 9.2 °C 7.3 °C 989.8 hPa WNW 4.7 km/h 17.7 km/h 88% 0.0 mm 0 W/m2
04:39 9.1 °C 7.4 °C 989.8 hPa ESE 4.7 km/h 19.3 km/h 89% 0.0 mm 0 W/m2
04:44 8.9 °C 7.2 °C 989.5 hPa NW 1.4 km/h 14.5 km/h 89% 0.2 mm 0 W/m2
04:49 8.9 °C 7.3 °C 989.5 hPa SSE 1.4 km/h 14.5 km/h 90% 0.2 mm 0 W/m2
04:54 8.8 °C 7.2 °C 989.5 hPa NNE 3.2 km/h 27.4 km/h 90% 0.5 mm 0 W/m2
04:59 8.8 °C 7.4 °C 989.5 hPa Calm   12.9 km/h 91% 0.5 mm 0 W/m2
05:04 8.7 °C 7.3 °C 989.5 hPa NNW 3.2 km/h 27.4 km/h 91% 0.5 mm 0 W/m2
05:09 8.7 °C 7.5 °C 989.5 hPa NW 7.9 km/h 16.1 km/h 92% 0.5 mm 0 W/m2
05:14 8.6 °C 7.4 °C 989.5 hPa North 6.4 km/h 11.3 km/h 92% 0.8 mm 0 W/m2
05:19 8.6 °C 7.4 °C 989.5 hPa North 7.9 km/h 8 km/h 92% 0.8 mm 0 W/m2
05:24 8.6 °C 7.4 °C 989.8 hPa West 11.1 km/h 16.1 km/h 92% 1.0 mm 0 W/m2
05:29 8.5 °C 7.4 °C 990.2 hPa WNW 22.7 km/h 22.5 km/h 93% 1.5 mm 0 W/m2
05:34 7.6 °C 6.1 °C 990.2 hPa WSW 11.1 km/h 19.3 km/h 90% 2.3 mm 0 W/m2
05:39 6.7 °C 5.2 °C 990.5 hPa WNW 22.5 km/h 22.5 km/h 90% 3.3 mm 0 W/m2
05:44 6.2 °C 4.8 °C 990.5 hPa WNW 7.9 km/h 16.1 km/h 91% 3.8 mm 0 W/m2
05:49 5.9 °C 4.5 °C 990.5 hPa WSW 11.1 km/h 17.7 km/h 91% 4.3 mm 0 W/m2
05:54 5.8 °C 4.6 °C 990.5 hPa West 17.7 km/h 17.7 km/h 92% 4.3 mm 0 W/m2
05:59 5.7 °C 4.7 °C 990.2 hPa West 4.7 km/h 17.7 km/h 93% 4.3 mm 0 W/m2
06:04 5.6 °C 4.6 °C 990.2 hPa West 6.4 km/h 9.7 km/h 93% 4.6 mm 0 W/m2
06:09 5.6 °C 4.6 °C 990.2 hPa West 3.2 km/h 17.7 km/h 93% 4.6 mm 0 W/m2
06:14 5.6 °C 4.6 °C 990.2 hPa WSW 9.7 km/h 9.7 km/h 93% 4.3 mm 0 W/m2
06:19 5.5 °C 4.5 °C 990.2 hPa WSW 6.4 km/h 9.7 km/h 93% 4.6 mm 0 W/m2
06:24 5.4 °C 4.4 °C 990.2 hPa West 6.4 km/h 9.7 km/h 93% 4.3 mm 0 W/m2
06:29 5.4 °C 4.5 °C 990.2 hPa West 4.7 km/h 8 km/h 94% 3.8 mm 0 W/m2
06:34 5.5 °C 4.6 °C 990.2 hPa WNW 1.4 km/h 6.4 km/h 94% 3.3 mm 0 W/m2
06:39 5.5 °C 4.6 °C 990.2 hPa WNW 3.2 km/h 6.4 km/h 94% 2.3 mm 0 W/m2
06:44 5.5 °C 4.6 °C 990.5 hPa WNW 3.2 km/h 4.8 km/h 94% 1.5 mm 0 W/m2
06:49 5.5 °C 4.6 °C 990.5 hPa West 13 km/h 12.9 km/h 94% 1.3 mm 0 W/m2
06:54 5.3 °C 4.3 °C 990.5 hPa WSW 4.7 km/h 16.1 km/h 93% 1.3 mm 0 W/m2
07:00 5.2 °C 4.2 °C 990.9 hPa WNW 3.2 km/h 9.7 km/h 93% 0.8 mm 0 W/m2
07:05 5.2 °C 4.2 °C 990.9 hPa WNW 4.7 km/h 16.1 km/h 93% 0.8 mm 0 W/m2
07:10 5.2 °C 4.2 °C 990.9 hPa NW 1.4 km/h 4.8 km/h 93% 0.8 mm 0 W/m2
07:15 5.2 °C 4.2 °C 990.9 hPa NW 1.4 km/h 9.7 km/h 93% 1.0 mm 0 W/m2
07:20 5.1 °C 4.1 °C 990.9 hPa WNW 4.7 km/h 9.7 km/h 93% 1.0 mm 0 W/m2
07:25 5 °C 4 °C 990.9 hPa West 4.7 km/h 6.4 km/h 93% 1.3 mm 0 W/m2
07:30 4.9 °C 3.9 °C 990.9 hPa NW 4.7 km/h 9.7 km/h 93% 1.3 mm 0 W/m2
07:35 4.8 °C 3.9 °C 991.2 hPa WSW 1.4 km/h 6.4 km/h 94% 1.3 mm 0 W/m2
07:40 4.8 °C 3.8 °C 991.2 hPa West 4.7 km/h 6.4 km/h 93% 1.3 mm 0 W/m2
07:45 4.7 °C 3.7 °C 991.2 hPa Calm   3.2 km/h 93% 1.3 mm 0 W/m2
07:50 4.7 °C 3.7 °C 991.2 hPa WSW 4.7 km/h 14.5 km/h 93% 1.5 mm 0 W/m2
07:55 4.6 °C 3.4 °C 991.5 hPa NNW 3.2 km/h 12.9 km/h 92% 1.3 mm 0 W/m2
08:00 4.4 °C 3.2 °C 991.5 hPa NNW 4.7 km/h 8 km/h 92% 1.5 mm 0 W/m2
08:05 4.3 °C 3.1 °C 991.5 hPa WNW 3.2 km/h 9.7 km/h 92% 1.8 mm 0 W/m2
08:10 4.2 °C 3 °C 991.5 hPa NW 1.4 km/h 11.3 km/h 92% 1.8 mm 0 W/m2
08:15 4.1 °C 2.9 °C 991.9 hPa NW 3.2 km/h 4.8 km/h 92% 2.0 mm 0 W/m2
08:20 3.9 °C 2.7 °C 992.2 hPa North 13 km/h 12.9 km/h 92% 2.0 mm 0 W/m2
08:25 3.8 °C 2.6 °C 992.2 hPa NW 3.2 km/h 6.4 km/h 92% 2.0 mm 0 W/m2
08:30 3.7 °C 2.5 °C 992.5 hPa West 3.2 km/h 6.4 km/h 92% 2.3 mm 0 W/m2
08:35 3.4 °C 2.2 °C 992.5 hPa North 7.9 km/h 8 km/h 92% 2.3 mm 0 W/m2
08:40 3.2 °C 2 °C 992.5 hPa NW 3.2 km/h 3.2 km/h 92% 2.3 mm 0 W/m2
08:45 3.1 °C 1.9 °C 992.5 hPa NW 8 km/h 8 km/h 92% 2.5 mm 0 W/m2
08:50 2.9 °C 1.9 °C 992.5 hPa Calm   3.2 km/h 93% 2.5 mm 5 W/m2
08:55 2.8 °C 1.8 °C 992.5 hPa West 3.2 km/h 6.4 km/h 93% 2.8 mm 5 W/m2
09:00 2.7 °C 1.7 °C 992.5 hPa WNW 1.4 km/h 4.8 km/h 93% 2.5 mm 7 W/m2
09:05 2.5 °C 1.5 °C 992.9 hPa WNW 1.4 km/h 6.4 km/h 93% 2.3 mm 7 W/m2
09:10 2.4 °C 1.4 °C 992.9 hPa Calm     93% 2.3 mm 9 W/m2
09:15 2.3 °C 1.3 °C 992.9 hPa NE 1.4 km/h 3.2 km/h 93% 2.3 mm 9 W/m2
09:20 2.3 °C 1.3 °C 992.9 hPa Calm   3.2 km/h 93% 2.0 mm 12 W/m2
09:25 2.2 °C 1.3 °C 992.9 hPa NE 1.4 km/h 1.6 km/h 94% 2.0 mm 25 W/m2
09:30 2.1 °C 1.2 °C 993.2 hPa ENE 1.4 km/h 3.2 km/h 94% 2.0 mm 40 W/m2
09:35 2.1 °C 1.2 °C 993.2 hPa Calm   1.6 km/h 94% 1.8 mm 33 W/m2
09:40 2 °C 1.1 °C 993.2 hPa Calm   3.2 km/h 94% 1.8 mm 16 W/m2
09:45 1.9 °C 1 °C 993.6 hPa Calm     94% 1.5 mm 14 W/m2
09:50 1.9 °C 1 °C 993.6 hPa Calm     94% 1.5 mm 32 W/m2
09:55 1.9 °C 1 °C 993.6 hPa East 1.4 km/h 3.2 km/h 94% 1.5 mm 60 W/m2
10:00 1.9 °C 1 °C 993.6 hPa Calm     94% 1.5 mm 58 W/m2
10:05 2 °C 1.1 °C 993.6 hPa Calm     94% 1.3 mm 44 W/m2
10:10 2.1 °C 1.4 °C 993.6 hPa Calm     95% 1.0 mm 49 W/m2
10:15 2.1 °C 1.4 °C 993.9 hPa Calm     95% 0.8 mm 42 W/m2
10:20 2.2 °C 1.5 °C 993.6 hPa Calm   1.6 km/h 95% 0.8 mm 44 W/m2
10:25 2.2 °C 1.5 °C 993.6 hPa Calm   1.6 km/h 95% 0.5 mm 40 W/m2
10:30 2.3 °C 1.6 °C 993.9 hPa East 1.4 km/h 1.6 km/h 95% 0.5 mm 39 W/m2
10:35 2.3 °C 1.6 °C 993.9 hPa Calm   1.6 km/h 95% 0.5 mm 40 W/m2
10:40 2.4 °C 1.7 °C 993.9 hPa Calm   1.6 km/h 95% 0.5 mm 39 W/m2
10:45 2.4 °C 1.7 °C 993.9 hPa Calm   4.8 km/h 95% 0.5 mm 51 W/m2
10:50 2.5 °C 1.8 °C 994.2 hPa NW 3.2 km/h 3.2 km/h 95% 0.5 mm 54 W/m2
10:55 2.6 °C 1.9 °C 994.2 hPa WNW 1.4 km/h 4.8 km/h 95% 0.2 mm 56 W/m2
11:00 2.6 °C 1.9 °C 994.2 hPa Calm     95% 0.2 mm 62 W/m2
11:05 2.7 °C 2 °C 994.2 hPa Calm     95% 0.2 mm 63 W/m2
11:10 2.7 °C 2 °C 994.2 hPa NE 1.4 km/h 3.2 km/h 95% 0.2 mm 60 W/m2
11:15 2.7 °C 2 °C 994.2 hPa Calm   1.6 km/h 95% 0.5 mm 56 W/m2
11:20 2.8 °C 2.1 °C 994.2 hPa NE 1.4 km/h 1.6 km/h 95% 0.5 mm 70 W/m2
11:25 2.8 °C 2.1 °C 994.2 hPa Calm     95% 0.5 mm 91 W/m2
11:30 2.8 °C 2.1 °C 994.2 hPa NE 1.4 km/h 1.6 km/h 95% 0.2 mm 86 W/m2
11:35 2.9 °C 2.2 °C 994.2 hPa Calm   1.6 km/h 95% 0.2 mm 83 W/m2
11:40 3 °C 2.3 °C 994.2 hPa ENE 1.4 km/h 3.2 km/h 95% 0.2 mm 74 W/m2
11:45 3 °C 2.3 °C 994.2 hPa ENE 1.4 km/h 3.2 km/h 95% 0.2 mm 76 W/m2
11:50 3 °C 2.3 °C 994.2 hPa East 3.2 km/h 4.8 km/h 95% 0.2 mm 91 W/m2
11:55 3.1 °C 2.4 °C 993.9 hPa East 1.4 km/h 6.4 km/h 95% 0.2 mm 98 W/m2
12:01 3.2 °C 2.5 °C 993.9 hPa ESE 3.2 km/h 4.8 km/h 95% 0.2 mm 100 W/m2
12:06 3.2 °C 2.5 °C 993.9 hPa ESE 1.4 km/h 4.8 km/h 95% 0.2 mm 116 W/m2
12:11 3.2 °C 2.5 °C 994.2 hPa East 1.4 km/h 3.2 km/h 95% 0.2 mm 111 W/m2
12:16 3.3 °C 2.6 °C 994.2 hPa Calm   4.8 km/h 95% 0.0 mm 113 W/m2
12:21 3.3 °C 2.6 °C 994.2 hPa East 3.2 km/h 3.2 km/h 95% 0.0 mm 121 W/m2
12:26 3.4 °C 2.7 °C 994.2 hPa East 3.2 km/h 4.8 km/h 95% 0.0 mm 134 W/m2
12:31 3.4 °C 2.7 °C 994.2 hPa Calm   3.2 km/h 95% 0.0 mm 123 W/m2
12:36 3.4 °C 2.7 °C 994.2 hPa East 1.4 km/h 4.8 km/h 95% 0.0 mm 121 W/m2
12:41 3.5 °C 2.8 °C 994.2 hPa East 1.4 km/h 3.2 km/h 95% 0.0 mm 146 W/m2
12:46 3.6 °C 2.9 °C 994.2 hPa East 3.2 km/h 3.2 km/h 95% 0.0 mm 155 W/m2
12:51 3.6 °C 2.7 °C 994.2 hPa ENE 1.4 km/h 3.2 km/h 94% 0.0 mm 156 W/m2
12:56 3.7 °C 2.8 °C 994.2 hPa Calm   3.2 km/h 94% 0.0 mm 181 W/m2
13:01 3.9 °C 3 °C 994.2 hPa Calm   1.6 km/h 94% 0.0 mm 186 W/m2
13:06 4 °C 3.1 °C 994.2 hPa NNE 1.4 km/h 3.2 km/h 94% 0.0 mm 141 W/m2
13:11 4.1 °C 3.1 °C 994.2 hPa Calm   1.6 km/h 93% 0.0 mm 167 W/m2
13:16 4.1 °C 3.1 °C 994.2 hPa NNE 3.2 km/h 3.2 km/h 93% 0.0 mm 128 W/m2
13:21 4.2 °C 3.2 °C 994.2 hPa Calm   4.8 km/h 93% 0.0 mm 148 W/m2
13:26 4.3 °C 3.3 °C 994.2 hPa Calm   1.6 km/h 93% 0.0 mm 148 W/m2
13:31 4.4 °C 3.4 °C 994.2 hPa Calm   4.8 km/h 93% 0.0 mm 120 W/m2
13:36 4.4 °C 3.2 °C 994.2 hPa North 1.4 km/h 1.6 km/h 92% 0.0 mm 167 W/m2
13:41 4.5 °C 3.3 °C 994.2 hPa Calm   3.2 km/h 92% 0.0 mm 148 W/m2
13:46 4.6 °C 3.4 °C 993.9 hPa Calm   1.6 km/h 92% 0.0 mm 144 W/m2
13:51 4.7 °C 3.5 °C 993.9 hPa Calm   3.2 km/h 92% 0.0 mm 132 W/m2
13:56 4.7 °C 3.5 °C 993.9 hPa ENE 1.4 km/h 3.2 km/h 92% 0.0 mm 123 W/m2
14:01 4.8 °C 3.5 °C 993.9 hPa Calm   1.6 km/h 91% 0.0 mm 109 W/m2
14:06 4.8 °C 3.5 °C 993.9 hPa Calm   3.2 km/h 91% 0.0 mm 98 W/m2
14:11 4.8 °C 3.5 °C 993.9 hPa East 3.2 km/h 4.8 km/h 91% 0.0 mm 93 W/m2
14:16 4.8 °C 3.3 °C 993.9 hPa Calm   1.6 km/h 90% 0.0 mm 90 W/m2
14:21 4.8 °C 3.5 °C 993.9 hPa ENE 3.2 km/h 4.8 km/h 91% 0.0 mm 86 W/m2
14:26 4.8 °C 3.3 °C 994.2 hPa ENE 1.4 km/h 3.2 km/h 90% 0.0 mm 105 W/m2
14:31 4.7 °C 3.2 °C 994.2 hPa NE 3.2 km/h 4.8 km/h 90% 0.0 mm 142 W/m2
14:36 4.7 °C 3.2 °C 994.2 hPa Calm   1.6 km/h 90% 0.0 mm 97 W/m2
14:41 4.7 °C 3.2 °C 994.2 hPa Calm   1.6 km/h 90% 0.0 mm 84 W/m2
14:46 4.7 °C 3.2 °C 994.2 hPa ENE 1.4 km/h 1.6 km/h 90% 0.0 mm 79 W/m2
14:51 4.7 °C 3.2 °C 994.2 hPa Calm     90% 0.0 mm 84 W/m2
14:56 4.8 °C 3.1 °C 994.2 hPa ENE 3.2 km/h 3.2 km/h 89% 0.0 mm 90 W/m2
15:01 4.8 °C 3.1 °C 994.2 hPa ENE 1.4 km/h 3.2 km/h 89% 0.0 mm 91 W/m2
15:06 4.8 °C 3.1 °C 994.2 hPa ENE 3.2 km/h 3.2 km/h 89% 0.0 mm 79 W/m2
15:11 4.8 °C 3.1 °C 994.2 hPa Calm     89% 0.0 mm 79 W/m2
15:16 4.8 °C 3.1 °C 994.2 hPa NE 3.2 km/h 3.2 km/h 89% 0.0 mm 65 W/m2
15:21 4.8 °C 3.1 °C 994.6 hPa ENE 1.4 km/h 3.2 km/h 89% 0.0 mm 60 W/m2
15:26 4.8 °C 3.3 °C 994.6 hPa ENE 1.4 km/h 3.2 km/h 90% 0.0 mm 63 W/m2
15:31 4.8 °C 3.1 °C 994.6 hPa Calm   1.6 km/h 89% 0.0 mm 56 W/m2
15:36 4.8 °C 3.1 °C 994.6 hPa Calm     89% 0.0 mm 46 W/m2
15:41 4.8 °C 3.3 °C 994.6 hPa Calm     90% 0.0 mm 35 W/m2
15:46 4.8 °C 3.1 °C 994.6 hPa NNE 3.2 km/h 4.8 km/h 89% 0.0 mm 32 W/m2
15:51 4.8 °C 3.1 °C 994.9 hPa Calm   3.2 km/h 89% 0.0 mm 30 W/m2
15:56 4.8 °C 3.1 °C 994.9 hPa Calm     89% 0.0 mm 30 W/m2
16:01 4.8 °C 3.1 °C 994.9 hPa Calm     89% 0.0 mm 37 W/m2
16:06 4.8 °C 3.3 °C 994.6 hPa Calm   1.6 km/h 90% 0.0 mm 46 W/m2
16:12 4.8 °C 3.5 °C 994.6 hPa Calm     91% 0.0 mm 28 W/m2
16:17 4.8 °C 3.5 °C 994.6 hPa Calm   1.6 km/h 91% 0.0 mm 21 W/m2
16:22 4.8 °C 3.5 °C 994.6 hPa Calm   1.6 km/h 91% 0.0 mm 18 W/m2
16:27 4.8 °C 3.5 °C 994.6 hPa Calm     91% 0.0 mm 16 W/m2
16:32 4.7 °C 3.4 °C 994.6 hPa Calm   1.6 km/h 91% 0.0 mm 18 W/m2
16:37 4.7 °C 3.4 °C 994.6 hPa Calm     91% 0.0 mm 16 W/m2
16:42 4.7 °C 3.4 °C 994.6 hPa Calm     91% 0.0 mm 12 W/m2
16:47 4.7 °C 3.5 °C 994.6 hPa Calm     92% 0.0 mm 9 W/m2
16:52 4.7 °C 3.5 °C 994.6 hPa NE 1.4 km/h 1.6 km/h 92% 0.0 mm 7 W/m2
16:57 4.7 °C 3.5 °C 994.6 hPa Calm     92% 0.0 mm 5 W/m2
17:02 4.7 °C 3.5 °C 994.6 hPa Calm     92% 0.0 mm 0 W/m2
17:07 4.7 °C 3.5 °C 994.6 hPa Calm     92% 0.0 mm 0 W/m2
17:12 4.6 °C 3.4 °C 994.6 hPa Calm     92% 0.0 mm 0 W/m2
17:17 4.6 °C 3.4 °C 994.6 hPa Calm     92% 0.0 mm 0 W/m2
17:22 4.6 °C 3.4 °C 994.6 hPa Calm   3.2 km/h 92% 0.0 mm 0 W/m2
17:27 4.6 °C 3.4 °C 994.6 hPa Calm     92% 0.0 mm 0 W/m2
17:32 4.6 °C 3.4 °C 994.6 hPa Calm     92% 0.0 mm 0 W/m2
17:37 4.5 °C 3.3 °C 994.6 hPa North 1.4 km/h 1.6 km/h 92% 0.0 mm 0 W/m2
17:42 4.4 °C 3.4 °C 994.6 hPa WNW 1.4 km/h 3.2 km/h 93% 0.0 mm 0 W/m2
17:47 4.4 °C 3.4 °C 994.9 hPa WSW 4.7 km/h 6.4 km/h 93% 0.0 mm 0 W/m2
17:52 4.4 °C 3.4 °C 994.9 hPa West 3.2 km/h 6.4 km/h 93% 0.0 mm 0 W/m2
17:57 4.3 °C 3.3 °C 994.9 hPa West 3.2 km/h 4.8 km/h 93% 0.0 mm 0 W/m2
18:02 4.3 °C 3.1 °C 994.9 hPa West 3.2 km/h 6.4 km/h 92% 0.0 mm 0 W/m2
18:07 4.3 °C 3.1 °C 994.9 hPa West 3.2 km/h 4.8 km/h 92% 0.0 mm 0 W/m2
18:12 4.3 °C 3.1 °C 994.9 hPa West 1.4 km/h 4.8 km/h 92% 0.0 mm 0 W/m2
18:17 4.3 °C 3.1 °C 994.9 hPa West 3.2 km/h 4.8 km/h 92% 0.0 mm 0 W/m2
18:22 4.2 °C 3 °C 995.3 hPa WNW 3.2 km/h 4.8 km/h 92% 0.0 mm 0 W/m2
18:27 4.2 °C 3 °C 995.3 hPa West 3.2 km/h 6.4 km/h 92% 0.0 mm 0 W/m2
18:32 4.2 °C 3 °C 995.3 hPa West 3.2 km/h 9.7 km/h 92% 0.0 mm 0 W/m2
18:37 4.2 °C 2.9 °C 995.3 hPa WNW 6.4 km/h 8 km/h 91% 0.0 mm 0 W/m2
18:42 4.2 °C 2.9 °C 995.3 hPa West 3.2 km/h 4.8 km/h 91% 0.0 mm 0 W/m2
18:47 4.2 °C 2.9 °C 995.3 hPa West 6.4 km/h 9.7 km/h 91% 0.0 mm 0 W/m2
18:52 4.2 °C 2.9 °C 995.6 hPa WNW 4.7 km/h 11.3 km/h 91% 0.0 mm 0 W/m2
18:57 4.2 °C 2.7 °C 995.6 hPa WNW 4.7 km/h 6.4 km/h 90% 0.0 mm 0 W/m2
19:02 4.2 °C 2.7 °C 995.6 hPa West 11.1 km/h 11.3 km/h 90% 0.0 mm 0 W/m2
19:07 4.2 °C 2.7 °C 995.6 hPa West 6.4 km/h 9.7 km/h 90% 0.0 mm 0 W/m2
19:12 4.2 °C 2.7 °C 995.6 hPa West 4.7 km/h 6.4 km/h 90% 0.0 mm 0 W/m2
19:17 4.2 °C 2.7 °C 995.6 hPa West 1.4 km/h 11.3 km/h 90% 0.0 mm 0 W/m2
19:22 4.2 °C 2.7 °C 995.6 hPa WSW 11.1 km/h 11.3 km/h 90% 0.0 mm 0 W/m2
19:27 4.1 °C 2.5 °C 995.9 hPa WSW 4.7 km/h 4.8 km/h 89% 0.0 mm 0 W/m2
19:32 4.1 °C 2.6 °C 995.9 hPa WSW 11.3 km/h 11.3 km/h 90% 0.0 mm 0 W/m2
19:37 4.1 °C 2.6 °C 995.9 hPa WNW 1.4 km/h 6.4 km/h 90% 0.0 mm 0 W/m2
19:42 4 °C 2.4 °C 995.9 hPa West 4.7 km/h 6.4 km/h 89% 0.0 mm 0 W/m2
19:47 4 °C 2.4 °C 996.3 hPa West 3.2 km/h 9.7 km/h 89% 0.0 mm 0 W/m2
19:52 4 °C 2.4 °C 996.3 hPa West 6.4 km/h 9.7 km/h 89% 0.0 mm 0 W/m2
19:57 4.1 °C 2.5 °C 996.3 hPa West 6.4 km/h 11.3 km/h 89% 0.0 mm 0 W/m2
20:02 4.1 °C 2.3 °C 996.6 hPa West 6.4 km/h 12.9 km/h 88% 0.0 mm 0 W/m2
20:07 4.1 °C 2.3 °C 996.6 hPa West 4.7 km/h 11.3 km/h 88% 0.0 mm 0 W/m2
20:12 4.1 °C 2.3 °C 997.0 hPa WNW 1.4 km/h 12.9 km/h 88% 0.0 mm 0 W/m2
20:17 4.1 °C 2.3 °C 997.0 hPa West 9.7 km/h 11.3 km/h 88% 0.0 mm 0 W/m2
20:22 4 °C 2.2 °C 997.0 hPa West 4.7 km/h 6.4 km/h 88% 0.0 mm 0 W/m2
20:27 3.9 °C 2.1 °C 997.3 hPa WNW 4.7 km/h 11.3 km/h 88% 0.0 mm 0 W/m2
20:32 3.9 °C 2.3 °C 997.3 hPa WSW 6.4 km/h 11.3 km/h 89% 0.0 mm 0 W/m2
20:37 3.9 °C 2.3 °C 997.3 hPa West 4.7 km/h 11.3 km/h 89% 0.0 mm 0 W/m2
20:42 3.9 °C 2.3 °C 997.3 hPa NW 4.7 km/h 9.7 km/h 89% 0.0 mm 0 W/m2
20:47 3.9 °C 2.3 °C 997.3 hPa West 4.7 km/h 9.7 km/h 89% 0.0 mm 0 W/m2
20:52 3.8 °C 2.2 °C 997.6 hPa West 11.1 km/h 11.3 km/h 89% 0.0 mm 0 W/m2
20:57 3.8 °C 2.2 °C 997.6 hPa West 6.4 km/h 9.7 km/h 89% 0.0 mm 0 W/m2
21:02 3.8 °C 2.2 °C 997.6 hPa WNW 6.4 km/h 11.3 km/h 89% 0.0 mm 0 W/m2
21:07 3.8 °C 2.2 °C 997.6 hPa West 3.2 km/h 6.4 km/h 89% 0.0 mm 0 W/m2
21:12 3.8 °C 2.2 °C 997.6 hPa WSW 6.4 km/h 12.9 km/h 89% 0.0 mm 0 W/m2
21:17 3.8 °C 2.2 °C 997.6 hPa WNW 4.7 km/h 12.9 km/h 89% 0.0 mm 0 W/m2
21:22 3.8 °C 2.2 °C 997.6 hPa West 3.2 km/h 9.7 km/h 89% 0.0 mm 0 W/m2
21:27 3.8 °C 2.2 °C 997.3 hPa West 3.2 km/h 6.4 km/h 89% 0.0 mm 0 W/m2
21:32 3.7 °C 2.1 °C 997.3 hPa WNW 4.7 km/h 8 km/h 89% 0.0 mm 0 W/m2
21:37 3.7 °C 2.1 °C 997.3 hPa WNW 3.2 km/h 9.7 km/h 89% 0.0 mm 0 W/m2
21:42 3.7 °C 2.1 °C 997.3 hPa WNW 3.2 km/h 11.3 km/h 89% 0.0 mm 0 W/m2
21:47 3.7 °C 2.1 °C 997.3 hPa West 6.4 km/h 6.4 km/h 89% 0.0 mm 0 W/m2
21:52 3.7 °C 2.1 °C 997.3 hPa WSW 3.2 km/h 6.4 km/h 89% 0.0 mm 0 W/m2
21:57 3.7 °C 2.2 °C 997.3 hPa WNW 6.4 km/h 9.7 km/h 90% 0.0 mm 0 W/m2
22:02 3.6 °C 2.1 °C 997.3 hPa WNW 4.7 km/h 9.7 km/h 90% 0.0 mm 0 W/m2
22:07 3.6 °C 2.1 °C 997.3 hPa NW 9.7 km/h 14.5 km/h 90% 0.0 mm 0 W/m2
22:13 3.6 °C 2 °C 997.3 hPa WNW 4.7 km/h 12.9 km/h 89% 0.0 mm 0 W/m2
22:18 3.6 °C 2 °C 997.3 hPa West 3.2 km/h 11.3 km/h 89% 0.0 mm 0 W/m2
22:23 3.6 °C 2 °C 997.6 hPa WNW 3.2 km/h 11.3 km/h 89% 0.0 mm 0 W/m2
22:28 3.6 °C 2 °C 997.6 hPa West 3.2 km/h 11.3 km/h 89% 0.0 mm 0 W/m2
22:33 3.6 °C 2 °C 997.6 hPa WNW 3.2 km/h 6.4 km/h 89% 0.0 mm 0 W/m2
22:38 3.6 °C 2 °C 997.6 hPa WNW 3.2 km/h 9.7 km/h 89% 0.0 mm 0 W/m2
22:43 3.6 °C 2 °C 997.6 hPa WNW 1.4 km/h 6.4 km/h 89% 0.0 mm 0 W/m2
22:48 3.6 °C 2 °C 997.6 hPa NW 7.9 km/h 11.3 km/h 89% 0.0 mm 0 W/m2
22:53 3.6 °C 2 °C 997.6 hPa WNW 11.1 km/h 11.3 km/h 89% 0.0 mm 0 W/m2
22:58 3.6 °C 2 °C 998.0 hPa WNW 4.7 km/h 12.9 km/h 89% 0.0 mm 0 W/m2
23:03 3.6 °C 2 °C 998.0 hPa West 4.7 km/h 11.3 km/h 89% 0.0 mm 0 W/m2
23:08 3.6 °C 2.1 °C 998.0 hPa West 4.7 km/h 8 km/h 90% 0.0 mm 0 W/m2
23:13 3.5 °C 2 °C 998.0 hPa WNW 4.7 km/h 4.8 km/h 90% 0.0 mm 0 W/m2
23:18 3.5 °C 2 °C 998.0 hPa West 3.2 km/h 4.8 km/h 90% 0.0 mm 0 W/m2
23:23 3.4 °C 1.9 °C 998.3 hPa West 4.7 km/h 9.7 km/h 90% 0.0 mm 0 W/m2
23:28 3.4 °C 1.9 °C 998.3 hPa West 6.4 km/h 12.9 km/h 90% 0.0 mm 0 W/m2
23:33 3.4 °C 1.9 °C 998.3 hPa WSW 1.4 km/h 11.3 km/h 90% 0.0 mm 0 W/m2
23:38 3.4 °C 1.9 °C 998.3 hPa West 6.4 km/h 12.9 km/h 90% 0.0 mm 0 W/m2
23:43 3.4 °C 1.9 °C 998.3 hPa West 3.2 km/h 11.3 km/h 90% 0.0 mm 0 W/m2
23:48 3.4 °C 1.9 °C 998.3 hPa West 6.4 km/h 11.3 km/h 90% 0.0 mm 0 W/m2
23:53 3.4 °C 1.8 °C 998.3 hPa SW 3.2 km/h 12.9 km/h 89% 0.0 mm 0 W/m2
23:58 3.4 °C 1.8 °C 998.3 hPa West 4.7 km/h 11.3 km/h 89% 0.0 mm 0 W/m2
Juneau County Weather
Compliments of Weather Underground - 4 mb